Port Hardy, British Columbia

1:11 PM PDT on August 04, 2015 (GMT -0700)
MARITIME | | Change Station
CLOSE
Current Station
Personal Weather Station
Location: Victoria, BC
Elevation: 0 ft
Nearby Weather Stations

Elev 0 ft 48.70 °N, 123.50 °W | Updated 27 days ago

Cloudy
Cloudy
63 °F
Feels Like 63 °F
N
10
Wind Variable Wind from NW
Gusts mph

Today is forecast to be nearly the same temperature as yesterday.

Today
High -- | Low -- °F
--% Chance of Precip.
Yesterday
High -- | Low -- °F
Precip. -- in
6:01 AM 9:09 PM
Waning Gibbous, 75% visible
Pressure 30.06 in
Visibility 15.0 miles
Clouds Few 1400 ft
Mostly Cloudy 3400 ft
Mostly Cloudy 10000 ft
Dew Point 56 °F
Humidity 77%
Rainfall in
Snow Depth Not available.
UV 5 out of 12
Pollen Not available.
Air Quality Not available.
Flu Activity Not available.
METAR CYZT 042000Z 05004KT 15SM FEW014 BKN034 BKN100 16/13 A3005 RMK CF2CU5AC1 AC TR SLP178

More Conditions Fewer Conditions

Pressure 30.06 in
Visibility 15.0 miles
Clouds Few 1400 ft
Mostly Cloudy 3400 ft
Mostly Cloudy 10000 ft
Dew Point 56 °F
Humidity 77%
Rainfall in
Snow Depth Not available.
UV 5 out of 12
Pollen Not available.
Air Quality Not available.
Flu Activity Not available.
METAR CYZT 042000Z 05004KT 15SM FEW014 BKN034 BKN100 16/13 A3005 RMK CF2CU5AC1 AC TR SLP178

More Conditions Fewer Conditions

10-Day Weather Forecast

×

Almanac

Astronomy

Aug. 04, 2015 Rise Set
Actual Time
Civil Twilight
Nautical Twilight
Astronomical Twilight
Moon
Length of Visible Light
Length of Day
Tomorrow will be .
, % of the Moon is Illuminated

Today's Extremes

Country Highs Country Lows

Community

WunderPhotos

Upload Photos

1,843,962 photos uploaded!

WunderBlogs® & News

Nearby

Air Quality

  Air Quality AQ Index Pollutant
Not available.

Snow Depth

Station Depth Elevation

Earthquake Activity

City Distance Mag. Time & Date
Minimum magnitude displayed is 2.5.

Coastal Water Temperatures

Place Temperature

Stations

Nearby Weather Stations

Station Location Temp. Windchill Dew Point Humidity Wind Precip. Elev Updated Type